Time;durP1;ratioP1;P1;durP2;ratioP2;P2;SDS_P1;SDS_P2;PMS_P1;PMS_P2;Temp;Humidity;BMP_temperature;BMP_pressure;BME280_temperature;BME280_humidity;BME280_pressure;Samples;Min_cycle;Max_cycle;Signal;HPM_P1;HPM_P2
2021/06/02 00:01:57;;;;;;;1999.90;999.90;;;9.90;99.90;;;;;;5115413;28;20309;-50
2021/06/02 00:04:35;;;;;;;1999.90;999.90;;;9.90;99.90;;;;;;5115364;28;20525;-47
2021/06/02 00:07:06;;;;;;;1999.90;999.90;;;9.90;99.90;;;;;;5115335;28;20166;-47
2021/06/02 00:09:33;;;;;;;1999.90;999.90;;;9.90;99.90;;;;;;5115335;28;20223;-47
2021/06/02 00:12:04;;;;;;;1999.90;999.90;;;9.90;99.90;;;;;;5115347;28;20171;-51
2021/06/02 00:14:32;;;;;;;1999.90;999.90;;;9.90;99.90;;;;;;5115352;28;20166;-48
2021/06/02 00:16:59;;;;;;;1999.90;999.90;;;9.90;99.90;;;;;;5115190;28;20546;-47
2021/06/02 00:19:28;;;;;;;1999.90;999.90;;;9.90;99.90;;;;;;5115318;28;20164;-47
2021/06/02 00:21:57;;;;;;;1999.90;999.90;;;9.90;99.90;;;;;;5114985;28;20198;-47
2021/06/02 00:24:25;;;;;;;1999.90;999.90;;;9.90;99.90;;;;;;5115105;28;20159;-47
2021/06/02 00:26:53;;;;;;;1999.90;999.90;;;9.80;99.90;;;;;;5114853;28;20203;-50
2021/06/02 00:29:21;;;;;;;1999.90;999.90;;;9.70;99.90;;;;;;5115026;28;20163;-50
2021/06/02 00:31:49;;;;;;;1999.90;999.90;;;9.70;99.90;;;;;;5114908;28;20209;-47
2021/06/02 00:34:18;;;;;;;1999.90;999.90;;;9.70;99.90;;;;;;5114839;28;20178;-51
2021/06/02 00:36:45;;;;;;;1999.90;999.90;;;9.60;99.90;;;;;;5114804;28;20509;-47
2021/06/02 00:39:13;;;;;;;1999.90;999.90;;;9.70;99.90;;;;;;5114784;28;20186;-47
2021/06/02 00:41:42;;;;;;;1999.90;999.90;;;9.70;99.90;;;;;;5114623;28;20729;-47
2021/06/02 00:44:11;;;;;;;1999.90;999.90;;;9.60;99.90;;;;;;5114601;28;20257;-47
2021/06/02 00:46:38;;;;;;;1999.90;999.90;;;9.60;99.90;;;;;;5113750;28;20166;-48
2021/06/02 00:49:08;;;;;;;1999.90;999.90;;;9.60;99.90;;;;;;5114467;28;20167;-47
2021/06/02 00:51:35;;;;;;;1999.90;999.90;;;9.70;99.90;;;;;;5114446;28;20216;-47
2021/06/02 00:54:04;;;;;;;1999.90;999.90;;;9.70;99.90;;;;;;5114631;28;20175;-49
2021/06/02 00:56:52;;;;;;;1999.90;999.90;;;9.80;99.90;;;;;;5114576;28;20159;-50
2021/06/02 00:59:28;;;;;;;1999.90;999.90;;;9.70;99.90;;;;;;5114394;28;20158;-48
2021/06/02 01:01:56;;;;;;;1999.90;999.90;;;9.70;99.90;;;;;;5114241;28;20660;-47
2021/06/02 01:04:26;;;;;;;1999.90;999.90;;;9.70;99.90;;;;;;5114219;28;20201;-47
2021/06/02 01:06:54;;;;;;;1999.90;999.90;;;9.70;99.90;;;;;;5114169;28;20167;-47
2021/06/02 01:09:22;;;;;;;1999.90;999.90;;;9.60;99.90;;;;;;5113970;28;20219;-52
2021/06/02 01:11:51;;;;;;;1999.90;999.90;;;9.60;99.90;;;;;;5114044;28;20167;-48
2021/06/02 01:14:21;;;;;;;1999.90;999.90;;;9.60;99.90;;;;;;5114450;28;20565;-47
2021/06/02 01:16:49;;;;;;;1999.90;999.90;;;9.50;99.90;;;;;;5113887;28;20220;-47
2021/06/02 01:19:21;;;;;;;1999.90;999.90;;;9.50;99.90;;;;;;5113738;28;20175;-47
2021/06/02 01:22:00;;;;;;;1999.90;999.90;;;9.50;99.90;;;;;;5113765;28;20187;-48
2021/06/02 01:24:32;;;;;;;1999.90;999.90;;;9.50;99.90;;;;;;5114449;28;20193;-53
2021/06/02 01:27:01;;;;;;;1999.90;999.90;;;9.50;99.90;;;;;;5113875;28;20174;-50
2021/06/02 01:29:29;;;;;;;1999.90;999.90;;;9.50;99.90;;;;;;5113902;28;20186;-51
2021/06/02 01:32:05;;;;;;;1999.90;999.90;;;9.40;99.90;;;;;;5113715;28;20174;-48
2021/06/02 01:35:00;;;;;;;1999.90;999.90;;;9.40;99.90;;;;;;5114038;28;20168;-47
2021/06/02 01:37:45;;;;;;;1999.90;999.90;;;9.30;99.90;;;;;;5114047;28;20575;-50
2021/06/02 01:40:37;;;;;;;1999.90;999.90;;;9.30;99.90;;;;;;5113752;28;20167;-47
2021/06/02 01:43:31;;;;;;;1999.90;999.90;;;9.30;99.90;;;;;;5113656;28;20205;-48
2021/06/02 01:46:22;;;;;;;1999.90;999.90;;;9.30;99.90;;;;;;5113638;28;20175;-46
2021/06/02 01:48:56;;;;;;;1999.90;999.90;;;9.30;99.90;;;;;;5113498;28;20236;-48
2021/06/02 01:51:30;;;;;;;1999.90;999.90;;;9.30;99.90;;;;;;5113466;28;20644;-46
2021/06/02 01:54:12;;;;;;;1999.90;999.90;;;9.40;99.90;;;;;;5113809;28;20163;-52
2021/06/02 01:57:00;;;;;;;1999.90;999.90;;;9.30;99.90;;;;;;5113611;28;20166;-48
2021/06/02 01:59:55;;;;;;;1999.90;999.90;;;9.20;99.90;;;;;;5113381;28;20230;-48
2021/06/02 02:03:07;;;;;;;1999.90;999.90;;;9.20;99.90;;;;;;5113363;28;20304;-46
2021/06/02 02:05:50;;;;;;;1999.90;999.90;;;9.30;99.90;;;;;;5113280;28;20241;-49
2021/06/02 02:08:55;;;;;;;1999.90;999.90;;;9.30;99.90;;;;;;5113041;28;20227;-52
2021/06/02 02:11:39;;;;;;;1999.90;999.90;;;9.20;99.90;;;;;;5113254;28;20170;-47
2021/06/02 02:14:11;;;;;;;1999.90;999.90;;;9.10;99.90;;;;;;5113562;28;20179;-47
2021/06/02 02:17:19;;;;;;;1999.90;999.90;;;9.10;99.90;;;;;;5113488;28;20163;-47
2021/06/02 02:20:08;;;;;;;1999.90;999.90;;;9.10;99.90;;;;;;5113324;28;20156;-46
2021/06/02 02:23:00;;;;;;;1999.90;999.90;;;9.10;99.90;;;;;;5113169;28;20644;-48
2021/06/02 02:26:05;;;;;;;1999.90;999.90;;;9.10;99.90;;;;;;5113063;28;20178;-46
2021/06/02 02:28:52;;;;;;;1999.90;999.90;;;9.10;99.90;;;;;;5095602;28;20182;-47
2021/06/02 02:31:43;;;;;;;1999.90;999.90;;;9.10;99.90;;;;;;5113141;28;20163;-50
2021/06/02 02:34:19;;;;;;;1999.90;999.90;;;9.10;99.90;;;;;;5113099;28;20559;-51
2021/06/02 02:36:50;;;;;;;1999.90;999.90;;;9.10;99.90;;;;;;5113156;28;20165;-49
2021/06/02 02:39:40;;;;;;;1999.90;999.90;;;9.10;99.90;;;;;;5113036;28;20156;-47
2021/06/02 02:42:42;;;;;;;1999.90;999.90;;;9.10;99.90;;;;;;5113015;28;20255;-47
2021/06/02 02:45:35;;;;;;;1999.90;999.90;;;9.10;99.90;;;;;;5113068;28;20163;-49
2021/06/02 02:48:26;;;;;;;1999.90;999.90;;;9.10;99.90;;;;;;5113026;28;20159;-49
2021/06/02 02:51:05;;;;;;;1999.90;999.90;;;9.10;99.90;;;;;;5113025;28;20156;-48
2021/06/02 02:53:49;;;;;;;1999.90;999.90;;;9.10;99.90;;;;;;5112740;28;20224;-49
2021/06/02 02:56:25;;;;;;;1999.90;999.90;;;9.10;99.90;;;;;;5112802;28;20644;-49
2021/06/02 02:59:13;;;;;;;1999.90;999.90;;;9.30;99.90;;;;;;5112923;28;20621;-52
2021/06/02 03:02:07;;;;;;;1999.90;999.90;;;9.20;99.90;;;;;;5112974;28;20187;-48
2021/06/02 03:04:50;;;;;;;1999.90;999.90;;;9.30;99.90;;;;;;5102036;28;20190;-49
2021/06/02 03:07:19;;;;;;;1999.90;999.90;;;9.40;99.90;;;;;;5112548;28;20189;-49
2021/06/02 03:10:04;;;;;;;1999.90;999.90;;;9.40;99.90;;;;;;5114265;28;20705;-48
2021/06/02 03:13:02;;;;;;;1999.90;999.90;;;9.40;99.90;;;;;;5116600;28;20163;-48
2021/06/02 03:15:45;;;;;;;1999.90;999.90;;;9.30;99.90;;;;;;5116372;28;20224;-52
2021/06/02 03:18:58;;;;;;;1999.90;999.90;;;9.30;99.90;;;;;;5116552;28;20179;-51
2021/06/02 03:21:42;;;;;;;1999.90;999.90;;;9.20;99.90;;;;;;5071216;28;20255;-54
2021/06/02 03:24:15;;;;;;;1999.90;999.90;;;9.10;99.90;;;;;;5116293;28;20235;-48
2021/06/02 03:27:07;;;;;;;1999.90;999.90;;;9.10;99.90;;;;;;5116218;28;20204;-53
2021/06/02 03:30:08;;;;;;;1999.90;999.90;;;9.10;99.90;;;;;;5115651;28;20179;-48
2021/06/02 03:33:00;;;;;;;1999.90;999.90;;;9.10;99.90;;;;;;5115983;28;20206;-48
2021/06/02 03:35:49;;;;;;;1999.90;999.90;;;9.10;99.90;;;;;;5115882;28;20171;-47
2021/06/02 03:38:44;;;;;;;1999.90;999.90;;;9.00;99.90;;;;;;5115540;28;20179;-51
2021/06/02 03:41:39;;;;;;;1999.90;999.90;;;8.90;99.90;;;;;;5115938;28;20194;-50
2021/06/02 03:44:40;;;;;;;1999.90;999.90;;;8.80;99.90;;;;;;5115922;28;20694;-49
2021/06/02 03:47:28;;;;;;;1999.90;999.90;;;8.80;99.90;;;;;;5115885;28;20194;-47
2021/06/02 03:50:27;;;;;;;1999.90;999.90;;;8.80;99.90;;;;;;5115798;28;20192;-48
2021/06/02 03:53:12;;;;;;;1999.90;999.90;;;8.70;99.90;;;;;;5105008;28;20192;-51
2021/06/02 03:55:53;;;;;;;1999.90;999.90;;;8.70;99.90;;;;;;5115698;28;20158;-46
2021/06/02 03:58:51;;;;;;;1999.90;999.90;;;8.60;99.90;;;;;;5115783;28;20166;-46
2021/06/02 04:01:40;;;;;;;1999.90;999.90;;;8.60;99.90;;;;;;5115816;28;20194;-47
2021/06/02 04:04:38;;;;;;;1999.90;999.90;;;8.60;99.90;;;;;;5115498;28;20167;-49
2021/06/02 04:07:06;;;;;;;1999.90;999.90;;;8.60;99.90;;;;;;5115362;28;20171;-46
2021/06/02 04:10:09;;;;;;;1999.90;999.90;;;8.60;99.90;;;;;;5074604;28;20246;-50
2021/06/02 04:13:02;;;;;;;1999.90;999.90;;;8.50;99.90;;;;;;5071766;28;20232;-47
2021/06/02 04:15:30;;;;;;;1999.90;999.90;;;8.50;99.90;;;;;;5074699;28;20167;-51
2021/06/02 04:17:57;;;;;;;1999.90;999.90;;;8.60;99.90;;;;;;5074578;28;20207;-47
2021/06/02 04:20:25;;;;;;;1999.90;999.90;;;8.60;99.90;;;;;;5074570;28;20183;-47
2021/06/02 04:22:54;;;;;;;1999.90;999.90;;;8.60;99.90;;;;;;5074440;28;20211;-46
2021/06/02 04:25:22;;;;;;;1999.90;999.90;;;8.60;99.90;;;;;;5074572;28;20164;-48
2021/06/02 04:27:49;;;;;;;1999.90;999.90;;;8.70;99.90;;;;;;5074520;28;20204;-47
2021/06/02 04:30:18;;;;;;;1999.90;999.90;;;8.70;99.90;;;;;;5074334;28;20176;-46
2021/06/02 04:32:47;;;;;;;1999.90;999.90;;;8.60;99.90;;;;;;5074272;28;20528;-50
2021/06/02 04:35:17;;;;;;;1999.90;999.90;;;8.70;99.90;;;;;;5074126;28;20258;-47
2021/06/02 04:37:46;;;;;;;1999.90;999.90;;;8.60;99.90;;;;;;5074194;28;20168;-50
2021/06/02 04:40:14;;;;;;;1999.90;999.90;;;8.70;99.90;;;;;;5074100;28;20310;-47
2021/06/02 04:42:42;;;;;;;1999.90;999.90;;;8.70;99.90;;;;;;5073907;28;20559;-52
2021/06/02 04:45:23;;;;;;;1999.90;999.90;;;8.70;99.90;;;;;;5073955;28;20168;-52
2021/06/02 04:47:51;;;;;;;1999.90;999.90;;;8.70;99.90;;;;;;5074019;28;20164;-47
2021/06/02 04:50:35;;;;;;;1999.90;999.90;;;8.80;99.90;;;;;;5073972;28;20267;-50
2021/06/02 04:53:17;;;;;;;1999.90;999.90;;;8.70;99.90;;;;;;5073600;28;20167;-48
2021/06/02 04:55:50;;;;;;;1999.90;999.90;;;8.60;99.90;;;;;;5073663;28;20515;-47
2021/06/02 04:58:34;;;;;;;1999.90;999.90;;;8.60;99.90;;;;;;5073558;28;20611;-47
2021/06/02 05:01:28;;;;;;;1999.90;999.90;;;8.60;99.90;;;;;;5073691;28;20151;-47
2021/06/02 05:04:49;;;;;;;1999.90;999.90;;;8.60;99.90;;;;;;5073492;28;20266;-48
2021/06/02 05:07:39;;;;;;;1999.90;999.90;;;8.60;99.90;;;;;;5075357;28;20619;-49
2021/06/02 05:10:39;;;;;;;1999.90;999.90;;;8.60;99.90;;;;;;5114071;28;20174;-50
2021/06/02 05:13:24;;;;;;;1999.90;999.90;;;8.70;99.90;;;;;;5114116;28;20162;-52
2021/06/02 05:16:09;;;;;;;1999.90;999.90;;;8.60;99.90;;;;;;5114123;28;20151;-48
2021/06/02 05:18:45;;;;;;;1999.90;999.90;;;8.60;99.90;;;;;;5113699;28;20179;-47
2021/06/02 05:24:10;;;;;;;1999.90;999.90;;;8.50;99.90;;;;;;5113522;28;20254;-49
2021/06/02 05:27:11;;;;;;;1999.90;999.90;;;8.40;99.90;;;;;;5113605;28;20616;-48
2021/06/02 05:29:56;;;;;;;1999.90;999.90;;;8.30;99.90;;;;;;5113356;28;20158;-49
2021/06/02 05:32:56;;;;;;;1999.90;999.90;;;8.30;99.90;;;;;;5113102;28;20170;-48
2021/06/02 05:35:26;;;;;;;1999.90;999.90;;;8.30;99.90;;;;;;5113717;28;20159;-49
2021/06/02 05:38:04;;;;;;;1999.90;999.90;;;8.30;99.90;;;;;;5113531;28;20174;-47
2021/06/02 05:40:48;;;;;;;1999.90;999.90;;;8.40;99.90;;;;;;5113415;28;20197;-47
2021/06/02 05:43:27;;;;;;;1999.90;999.90;;;8.30;99.90;;;;;;5113150;28;20199;-50
2021/06/02 05:46:03;;;;;;;1999.90;999.90;;;8.30;99.90;;;;;;5113393;28;20215;-47
2021/06/02 05:48:56;;;;;;;1999.90;999.90;;;8.20;99.90;;;;;;5113109;28;20198;-47
2021/06/02 05:51:39;;;;;;;1999.90;999.90;;;8.20;99.90;;;;;;5111969;28;20547;-47
2021/06/02 05:54:36;;;;;;;1999.90;999.90;;;8.20;99.90;;;;;;5112393;28;20170;-50
2021/06/02 05:57:16;;;;;;;1999.90;999.90;;;8.20;99.90;;;;;;5113162;28;20220;-47
2021/06/02 05:59:46;;;;;;;1999.90;999.90;;;8.20;99.90;;;;;;5113101;28;20159;-49
2021/06/02 06:02:50;;;;;;;1999.90;999.90;;;8.30;99.90;;;;;;5113026;28;20206;-49
2021/06/02 06:05:17;;;;;;;1999.90;999.90;;;8.30;99.90;;;;;;5112798;28;20264;-54
2021/06/02 06:08:28;;;;;;;1999.90;999.90;;;8.30;99.90;;;;;;5090763;28;20301;-46
2021/06/02 06:11:32;;;;;;;1999.90;999.90;;;8.30;99.90;;;;;;5092544;28;20527;-48
2021/06/02 06:14:35;;;;;;;1999.90;999.90;;;8.80;99.90;;;;;;5092604;28;20176;-57
2021/06/02 06:17:14;;;;;;;1999.90;999.90;;;8.90;99.90;;;;;;5090790;28;20174;-55
2021/06/02 06:20:30;;;;;;;1999.90;999.90;;;8.90;99.90;;;;;;5091731;28;20158;-50
2021/06/02 06:23:15;;;;;;;1999.90;999.90;;;8.90;99.90;;;;;;5072708;28;20226;-56
2021/06/02 06:25:53;;;;;;;1999.90;999.90;;;9.00;99.90;;;;;;5091823;28;20626;-52
2021/06/02 06:28:38;;;;;;;1999.90;999.90;;;8.90;99.90;;;;;;5090913;28;20167;-59
2021/06/02 06:31:12;;;;;;;1999.90;999.90;;;9.00;99.90;;;;;;5090860;28;20267;-53
2021/06/02 06:33:41;;;;;;;1999.90;999.90;;;9.10;99.90;;;;;;5092278;28;20261;-55
2021/06/02 06:36:10;;;;;;;1999.90;999.90;;;9.30;99.90;;;;;;5092006;28;20175;-47
2021/06/02 06:39:00;;;;;;;1999.90;999.90;;;9.40;99.90;;;;;;5092005;28;20625;-41
2021/06/02 06:41:29;;;;;;;1999.90;999.90;;;9.50;99.90;;;;;;5054344;28;20274;-43
2021/06/02 06:43:58;;;;;;;1999.90;999.90;;;9.70;99.90;;;;;;5092513;28;20233;-43
2021/06/02 06:46:27;;;;;;;1999.90;999.90;;;9.90;99.90;;;;;;5096009;28;20208;-42
2021/06/02 06:48:56;;;;;;;1999.90;999.90;;;10.10;99.90;;;;;;5095850;28;20168;-42
2021/06/02 06:51:27;;;;;;;1999.90;999.90;;;10.10;99.90;;;;;;5095901;28;20187;-42
2021/06/02 06:53:56;;;;;;;1999.90;999.90;;;10.20;99.90;;;;;;5096103;28;20155;-44
2021/06/02 06:56:24;;;;;;;1999.90;999.90;;;10.30;99.90;;;;;;5095671;28;20209;-42
2021/06/02 06:58:51;;;;;;;1999.90;999.90;;;10.40;99.90;;;;;;5095612;28;20228;-43
2021/06/02 07:01:18;;;;;;;1999.90;999.90;;;10.60;99.90;;;;;;5095787;28;20518;-43
2021/06/02 07:03:45;;;;;;;1999.90;999.90;;;10.70;99.90;;;;;;5095481;28;20268;-44
2021/06/02 07:06:16;;;;;;;1999.90;999.90;;;10.70;99.90;;;;;;5095892;28;20390;-44
2021/06/02 07:08:49;;;;;;;1999.90;999.90;;;10.80;99.90;;;;;;5108603;28;20292;-41
2021/06/02 07:11:18;;;;;;;1999.90;999.90;;;10.90;99.90;;;;;;5116136;28;20171;-41
2021/06/02 07:13:47;;;;;;;1999.90;999.90;;;11.00;99.90;;;;;;5115676;28;20167;-51
2021/06/02 07:16:15;;;;;;;1999.90;999.90;;;11.10;99.90;;;;;;5115595;28;20663;-45
2021/06/02 07:18:45;;;;;;;1999.90;999.90;;;11.10;99.90;;;;;;5115790;28;20257;-40
2021/06/02 07:21:13;;;;;;;1999.90;999.90;;;11.20;99.90;;;;;;5115890;28;20220;-46
2021/06/02 07:23:41;;;;;;;1999.90;999.90;;;11.60;99.90;;;;;;5115656;28;20209;-59
2021/06/02 07:26:08;;;;;;;1999.90;999.90;;;11.90;99.90;;;;;;5115795;28;20171;-47
2021/06/02 07:28:38;;;;;;;1999.90;999.90;;;12.70;99.90;;;;;;5115666;28;20171;-46
2021/06/02 07:31:07;;;;;;;1999.90;999.90;;;12.70;99.90;;;;;;5115988;28;20242;-47
2021/06/02 07:33:34;;;;;;;1999.90;999.90;;;12.60;99.90;;;;;;5115695;28;20240;-53
2021/06/02 07:36:01;;;;;;;1999.90;999.90;;;12.40;99.90;;;;;;5097204;28;20589;-56
2021/06/02 07:38:29;;;;;;;1999.90;999.90;;;12.30;99.90;;;;;;5115911;28;20167;-62
2021/06/02 07:40:56;;;;;;;1999.90;999.90;;;12.20;99.90;;;;;;5116551;28;20252;-49
2021/06/02 07:43:22;;;;;;;1999.90;999.90;;;12.20;99.90;;;;;;5115186;28;20207;-51
2021/06/02 07:45:49;;;;;;;1999.90;999.90;;;12.20;99.90;;;;;;5115025;28;20618;-46
2021/06/02 07:48:16;;;;;;;1999.90;999.90;;;12.70;99.90;;;;;;5115187;28;20201;-54
2021/06/02 07:50:43;;;;;;;1999.90;999.90;;;13.10;99.90;;;;;;5115152;28;20167;-53
2021/06/02 07:53:10;;;;;;;1999.90;999.90;;;13.10;99.90;;;;;;5115096;28;20200;-40
2021/06/02 07:55:37;;;;;;;1999.90;999.90;;;13.20;99.90;;;;;;5114965;28;20167;-41
2021/06/02 07:58:04;;;;;;;1999.90;999.90;;;13.30;99.90;;;;;;5115164;28;20167;-45
2021/06/02 08:00:31;;;;;;;1999.90;999.90;;;13.40;99.90;;;;;;5114600;28;20182;-49
2021/06/02 08:02:57;;;;;;;1999.90;999.90;;;13.50;99.90;;;;;;5114568;28;20198;-57
2021/06/02 08:05:24;;;;;;;1999.90;999.90;;;13.60;99.90;;;;;;5115106;28;20193;-52
2021/06/02 08:07:52;;;;;;;1999.90;999.90;;;13.70;99.90;;;;;;5115086;28;20355;-47
2021/06/02 08:10:19;;;;;;;1999.90;999.90;;;13.80;99.90;;;;;;5114916;28;20168;-44
2021/06/02 08:12:47;;;;;;;1999.90;999.90;;;13.90;99.90;;;;;;5114763;28;20172;-56
2021/06/02 08:15:15;;;;;;;1999.90;999.90;;;13.90;99.90;;;;;;5114497;28;20625;-62
2021/06/02 08:17:43;;;;;;;1999.90;999.90;;;14.00;99.90;;;;;;5114510;28;20284;-63
2021/06/02 08:20:11;;;;;;;1999.90;999.90;;;14.20;99.90;;;;;;5114646;28;20182;-50
2021/06/02 08:22:38;;;;;;;1999.90;999.90;;;14.30;99.90;;;;;;5114563;28;20238;-50
2021/06/02 08:25:08;;;;;;;1999.90;999.90;;;14.40;99.90;;;;;;5114531;28;20194;-49
2021/06/02 08:27:35;;;;;;;1999.90;999.90;;;15.30;99.90;;;;;;5114428;28;20195;-58
2021/06/02 08:30:04;;;;;;;1999.90;999.90;;;15.40;99.90;;;;;;5114279;28;20166;-48
2021/06/02 08:32:31;;;;;;;1999.90;999.90;;;15.50;99.90;;;;;;5114417;28;20675;-64
2021/06/02 08:34:57;;;;;;;1999.90;999.90;;;15.50;99.90;;;;;;5114265;28;20175;-53
2021/06/02 08:37:24;;;;;;;1999.90;999.90;;;15.50;99.90;;;;;;5114112;28;20179;-53
2021/06/02 08:39:51;;;;;;;1999.90;999.90;;;15.60;99.90;;;;;;5114169;28;20167;-53
2021/06/02 08:42:19;;;;;;;1999.90;999.90;;;15.70;99.90;;;;;;5114070;28;20183;-49
2021/06/02 08:44:45;;;;;;;1999.90;999.90;;;15.80;99.90;;;;;;5114071;28;20221;-46
2021/06/02 08:47:13;;;;;;;1999.90;999.90;;;15.80;99.90;;;;;;5114203;28;20206;-52
2021/06/02 08:49:39;;;;;;;1999.90;999.90;;;15.90;99.90;;;;;;5114087;28;20193;-53
2021/06/02 08:52:08;;;;;;;1999.90;999.90;;;16.40;99.90;;;;;;5114250;28;20159;-53
2021/06/02 08:54:36;;;;;;;1999.90;999.90;;;16.40;99.90;;;;;;5113931;28;20257;-68
2021/06/02 08:57:05;;;;;;;1999.90;999.90;;;16.50;99.90;;;;;;5114239;28;20171;-61
2021/06/02 08:59:32;;;;;;;1999.90;999.90;;;16.40;99.90;;;;;;5113989;28;20629;-56
2021/06/02 09:01:59;;;;;;;1999.90;999.90;;;16.30;99.90;;;;;;5113819;28;20229;-64
2021/06/02 09:04:27;;;;;;;1999.90;999.90;;;16.20;99.90;;;;;;5113894;28;20179;-56
2021/06/02 09:06:56;;;;;;;1999.90;999.90;;;16.00;99.90;;;;;;5113142;28;20167;-63
2021/06/02 09:09:23;;;;;;;1999.90;999.90;;;16.00;99.90;;;;;;5113673;28;20221;-52
2021/06/02 09:11:51;;;;;;;1999.90;999.90;;;16.10;99.90;;;;;;5113811;28;20168;-51
2021/06/02 09:14:35;;;;;;;1999.90;999.90;;;16.10;99.90;;;;;;5113600;28;20206;-58
2021/06/02 09:17:04;;;;;;;1999.90;999.90;;;16.10;99.90;;;;;;5113737;28;20171;-52
2021/06/02 09:19:43;;;;;;;1999.90;999.90;;;16.40;99.90;;;;;;5113113;28;20354;-58
2021/06/02 09:22:13;;;;;;;1999.90;999.90;;;16.70;99.90;;;;;;5113496;28;20198;-71
2021/06/02 09:24:48;;;;;;;1999.90;999.90;;;16.90;99.90;;;;;;5113407;28;20175;-54
2021/06/02 09:27:16;;;;;;;1999.90;999.90;;;17.20;99.90;;;;;;5113566;28;20170;-54
2021/06/02 09:29:55;;;;;;;1999.90;999.90;;;17.30;99.90;;;;;;5113343;28;20159;-55
2021/06/02 09:32:23;;;;;;;1999.90;999.90;;;17.30;99.90;;;;;;5116518;28;20163;-56
2021/06/02 09:34:59;;;;;;;1999.90;999.90;;;17.20;99.90;;;;;;5114699;28;20186;-56
2021/06/02 09:37:26;;;;;;;1999.90;999.90;;;17.00;99.90;;;;;;5113395;28;20162;-45
2021/06/02 09:39:53;;;;;;;1999.90;999.90;;;16.90;99.90;;;;;;5113412;28;20537;-58
2021/06/02 09:42:29;;;;;;;1999.90;999.90;;;17.00;99.90;;;;;;5113188;28;20191;-61
2021/06/02 09:45:11;;;;;;;1999.90;999.90;;;17.10;99.90;;;;;;5112942;28;20187;-60
2021/06/02 09:47:46;;;;;;;1999.90;999.90;;;18.30;99.90;;;;;;5113688;28;20159;-52
2021/06/02 09:50:18;;;;;;;1999.90;999.90;;;18.50;99.90;;;;;;5113174;28;20206;-49
2021/06/02 09:52:50;;;;;;;1999.90;999.90;;;18.40;99.90;;;;;;5113388;28;20190;-51
2021/06/02 09:55:40;;;;;;;1999.90;999.90;;;18.40;99.90;;;;;;5113473;28;20179;-55
2021/06/02 09:58:07;;;;;;;1999.90;999.90;;;18.40;99.90;;;;;;5112874;28;20618;-65
2021/06/02 10:00:43;;;;;;;1999.90;999.90;;;18.50;99.20;;;;;;5112832;28;20166;-60
2021/06/02 10:03:13;;;;;;;1999.90;999.90;;;18.50;99.20;;;;;;5112591;28;20199;-60
2021/06/02 10:05:42;;;;;;;1999.90;999.90;;;18.60;98.80;;;;;;5112912;28;20250;-58
2021/06/02 10:08:11;;;;;;;1999.90;999.90;;;18.70;99.80;;;;;;5112566;28;20223;-51
2021/06/02 10:10:40;;;;;;;1999.90;999.90;;;19.20;97.80;;;;;;5112736;28;20693;-57
2021/06/02 10:13:12;;;;;;;1999.90;999.90;;;19.30;95.80;;;;;;5112623;28;20164;-58
2021/06/02 10:15:46;;;;;;;1999.90;999.90;;;19.30;93.50;;;;;;5112210;28;20151;-54
2021/06/02 10:18:28;;;;;;;1999.90;999.90;;;19.20;91.00;;;;;;5095047;28;20214;-68
2021/06/02 10:21:09;;;;;;;1999.90;999.90;;;19.10;92.40;;;;;;5116711;28;20182;-59
2021/06/02 10:23:43;;;;;;;1999.90;999.90;;;19.20;98.20;;;;;;5116342;28;20530;-59
2021/06/02 10:26:14;;;;;;;1999.90;999.90;;;19.70;92.30;;;;;;5116929;28;20239;-63
2021/06/02 10:28:43;;;;;;;1999.90;999.90;;;20.00;92.60;;;;;;5117042;28;20195;-67
2021/06/02 10:31:13;;;;;;;1999.90;999.90;;;20.70;90.80;;;;;;5099918;28;20581;-63
2021/06/02 10:33:41;;;;;;;1999.90;999.90;;;20.70;90.70;;;;;;5116745;28;20159;-59
2021/06/02 10:36:10;;;;;;;1999.90;999.90;;;21.00;88.80;;;;;;5098603;28;20178;-50
2021/06/02 10:38:44;;;;;;;1999.90;999.90;;;20.70;80.70;;;;;;5116505;28;20191;-51
2021/06/02 10:41:23;;;;;;;1999.90;999.90;;;20.40;86.50;;;;;;5116750;28;20158;-47
2021/06/02 10:43:54;;;;;;;1999.90;999.90;;;20.40;82.40;;;;;;5116775;28;20278;-48
2021/06/02 10:46:24;;;;;;;1999.90;999.90;;;20.30;80.30;;;;;;5116614;28;20217;-51
2021/06/02 10:48:56;;;;;;;1999.90;999.90;;;20.20;82.20;;;;;;5116828;28;20229;-55
2021/06/02 10:51:30;;;;;;;1999.90;999.90;;;20.00;84.90;;;;;;5116647;28;20197;-66
2021/06/02 10:54:28;;;;;;;1999.90;999.90;;;20.10;88.20;;;;;;5116585;28;20158;-62
2021/06/02 10:56:58;;;;;;;1999.90;999.90;;;20.40;86.50;;;;;;5115605;28;20562;-66
2021/06/02 10:59:33;;;;;;;1999.90;999.90;;;20.60;85.80;;;;;;5116721;28;20187;-63
2021/06/02 11:02:07;;;;;;;1999.90;999.90;;;20.70;86.00;;;;;;5116157;28;20189;-66
2021/06/02 11:04:37;;;;;;;1999.90;999.90;;;20.90;85.00;;;;;;5116154;28;20179;-66
2021/06/02 11:07:30;;;;;;;1999.90;999.90;;;20.80;82.40;;;;;;5116328;28;20672;-62
2021/06/02 11:09:58;;;;;;;1999.90;999.90;;;20.80;83.80;;;;;;5105726;28;20215;-71
2021/06/02 11:12:49;;;;;;;1999.90;999.90;;;20.80;83.60;;;;;;5116407;28;20262;-65
2021/06/02 11:15:37;;;;;;;1999.90;999.90;;;20.90;82.90;;;;;;5098343;28;20220;-65
2021/06/02 11:18:10;;;;;;;1999.90;999.90;;;21.00;81.50;;;;;;5098205;28;20692;-60
2021/06/02 11:20:40;;;;;;;1999.90;999.90;;;21.20;83.40;;;;;;5115842;28;20251;-62
2021/06/02 11:23:12;;;;;;;1999.90;999.90;;;21.20;82.10;;;;;;5116033;28;20198;-71
2021/06/02 11:25:40;;;;;;;1999.90;999.90;;;21.30;82.20;;;;;;5115831;28;20147;-63
2021/06/02 11:28:09;;;;;;;1999.90;999.90;;;21.30;81.50;;;;;;5115963;28;20164;-65
2021/06/02 11:30:36;;;;;;;1999.90;999.90;;;21.20;71.80;;;;;;5115062;28;20203;-68
2021/06/02 11:33:08;;;;;;;1999.90;999.90;;;21.20;76.20;;;;;;5115745;28;20217;-64
2021/06/02 11:35:58;;;;;;;1999.90;999.90;;;21.00;75.10;;;;;;5115662;28;20592;-64
2021/06/02 11:38:27;;;;;;;1999.90;999.90;;;21.10;78.40;;;;;;5115626;28;20609;-62
2021/06/02 11:40:55;;;;;;;1999.90;999.90;;;21.00;73.70;;;;;;5115524;28;20175;-64
2021/06/02 11:43:22;;;;;;;1999.90;999.90;;;20.90;74.00;;;;;;5115512;28;20202;-62
2021/06/02 11:45:50;;;;;;;1999.90;999.90;;;20.60;74.60;;;;;;5115650;28;20253;-60
2021/06/02 11:48:25;;;;;;;1999.90;999.90;;;20.60;80.20;;;;;;5115277;28;20175;-63
2021/06/02 11:50:53;;;;;;;1999.90;999.90;;;20.80;78.40;;;;;;5115940;28;20155;-61
2021/06/02 11:53:21;;;;;;;1999.90;999.90;;;20.80;73.90;;;;;;5115211;28;20163;-60
2021/06/02 11:55:48;;;;;;;1999.90;999.90;;;20.70;77.20;;;;;;5115171;28;20187;-59
2021/06/02 11:58:15;;;;;;;1999.90;999.90;;;20.40;74.20;;;;;;5115277;28;20258;-57
2021/06/02 12:00:42;;;;;;;1999.90;999.90;;;20.20;78.90;;;;;;5115173;28;20198;-55
2021/06/02 12:03:14;;;;;;;1999.90;999.90;;;20.00;75.10;;;;;;5115060;28;20199;-47
2021/06/02 12:05:42;;;;;;;1999.90;999.90;;;20.20;81.90;;;;;;5115081;28;20187;-55
2021/06/02 12:08:14;;;;;;;1999.90;999.90;;;20.30;79.40;;;;;;5115046;28;20298;-52
2021/06/02 12:10:50;;;;;;;1999.90;999.90;;;20.40;81.20;;;;;;5115075;28;20252;-54
2021/06/02 12:13:19;;;;;;;1999.90;999.90;;;20.50;80.70;;;;;;5115029;28;20236;-58
2021/06/02 12:15:48;;;;;;;1999.90;999.90;;;20.80;81.10;;;;;;5114924;28;20181;-56
2021/06/02 12:18:43;;;;;;;1999.90;999.90;;;20.70;77.90;;;;;;5114768;28;20178;-57
2021/06/02 12:21:15;;;;;;;1999.90;999.90;;;20.80;74.90;;;;;;5115033;28;20171;-58
2021/06/02 12:23:49;;;;;;;1999.90;999.90;;;20.70;78.10;;;;;;5114448;28;20664;-55
2021/06/02 12:26:24;;;;;;;1999.90;999.90;;;20.90;77.20;;;;;;5114790;28;20208;-51
2021/06/02 12:28:51;;;;;;;1999.90;999.90;;;20.80;76.30;;;;;;5114653;28;20167;-56
2021/06/02 12:31:51;;;;;;;1999.90;999.90;;;21.00;75.10;;;;;;5114752;28;20621;-53
2021/06/02 12:34:26;;;;;;;1999.90;999.90;;;21.10;76.50;;;;;;5095870;28;20183;-51
2021/06/02 12:36:55;;;;;;;1999.90;999.90;;;21.30;75.30;;;;;;5114451;28;20163;-54
2021/06/02 12:39:32;;;;;;;1999.90;999.90;;;21.30;73.50;;;;;;5114659;28;20155;-53
2021/06/02 12:42:04;;;;;;;1999.90;999.90;;;21.40;72.10;;;;;;5113515;28;20586;-56
2021/06/02 12:44:37;;;;;;;1999.90;999.90;;;21.40;75.10;;;;;;5114331;28;20193;-53
2021/06/02 12:47:10;;;;;;;1999.90;999.90;;;21.50;79.30;;;;;;5114218;28;20519;-53
2021/06/02 12:49:45;;;;;;;1999.90;999.90;;;21.40;77.30;;;;;;5114164;28;20175;-60
2021/06/02 12:52:14;;;;;;;1999.90;999.90;;;21.20;75.90;;;;;;5114049;28;20179;-59